Time;durP1;ratioP1;P1;durP2;ratioP2;P2;SDS_P1;SDS_P2;PMS_P1;PMS_P2;Temp;Humidity;BMP_temperature;BMP_pressure;BME280_temperature;BME280_humidity;BME280_pressure;Samples;Min_cycle;Max_cycle;Signal;HPM_P1;HPM_P2
2022/06/15 00:02:18;;;;;;;3.10;2.90;;;;;;;23.73;38.88;95394.50;6150952;28;103158;-51
2022/06/15 00:05:21;;;;;;;3.30;3.10;;;;;;;23.67;38.89;95390.38;6159146;28;103818;-51
2022/06/15 00:08:24;;;;;;;3.37;3.07;;;;;;;23.68;38.73;95382.06;6158901;28;103306;-51
2022/06/15 00:11:31;;;;;;;4.27;3.97;;;;;;;23.66;39.00;95386.91;6159936;28;103911;-51
2022/06/15 00:14:34;;;;;;;5.73;3.10;;;;;;;23.63;38.53;95378.72;6150685;28;104192;-51
2022/06/15 00:17:37;;;;;;;4.07;3.77;;;;;;;23.65;39.25;95384.56;6159081;28;104198;-51
2022/06/15 00:20:40;;;;;;;3.83;3.50;;;;;;;23.62;38.40;95380.63;6160464;28;102973;-51
2022/06/15 00:23:44;;;;;;;4.23;3.90;;;;;;;23.64;38.41;95382.97;6158701;28;103855;-51
2022/06/15 00:26:49;;;;;;;4.70;4.30;;;;;;;23.62;38.61;95375.28;6148885;28;103964;-51
2022/06/15 00:29:52;;;;;;;5.60;4.47;;;;;;;23.62;38.26;95372.59;6159584;28;104264;-51
2022/06/15 00:32:55;;;;;;;4.30;3.90;;;;;;;23.60;38.44;95366.78;6158411;28;103511;-51
2022/06/15 00:36:00;;;;;;;3.77;3.47;;;;;;;23.57;38.29;95364.72;6153867;28;103354;-51
2022/06/15 00:39:04;;;;;;;3.93;3.63;;;;;;;23.57;38.17;95372.75;6156251;28;103071;-51
2022/06/15 00:42:12;;;;;;;4.10;3.70;;;;;;;23.58;38.01;95374.31;6156553;28;103183;-51
2022/06/15 00:45:15;;;;;;;3.53;3.17;;;;;;;23.54;37.98;95368.81;6141886;28;103161;-51
2022/06/15 00:48:18;;;;;;;3.60;3.30;;;;;;;23.56;37.63;95379.19;6146776;28;103277;-51
2022/06/15 00:51:22;;;;;;;3.37;3.07;;;;;;;23.56;37.85;95374.63;6161918;28;103621;-51
2022/06/15 00:54:27;;;;;;;3.10;2.90;;;;;;;23.54;37.63;95381.38;6163551;28;103134;-52
2022/06/15 00:57:31;;;;;;;3.80;3.50;;;;;;;23.54;37.83;95382.16;6161681;28;103350;-51
2022/06/15 01:00:35;;;;;;;4.60;3.50;;;;;;;23.55;37.71;95393.63;6153388;28;104245;-51
2022/06/15 01:03:38;;;;;;;3.83;3.43;;;;;;;23.52;37.46;95395.03;6162540;28;103986;-52
2022/06/15 01:06:51;;;;;;;4.57;3.77;;;;;;;23.51;37.48;95392.66;6157951;28;104221;-51
2022/06/15 01:10:01;;;;;;;6.47;4.70;;;;;;;23.49;37.40;95394.84;6153142;28;104802;-51
2022/06/15 01:13:26;;;;;;;4.67;4.37;;;;;;;23.47;37.10;95397.03;6156760;28;104327;-51
2022/06/15 01:16:40;;;;;;;4.13;3.73;;;;;;;23.51;37.38;95403.34;6162004;28;103279;-51
2022/06/15 01:20:13;;;;;;;3.80;3.50;;;;;;;23.50;37.14;95396.41;6160349;28;103156;-51
2022/06/15 01:24:00;;;;;;;4.90;4.43;;;;;;;23.51;37.51;95398.00;6120534;28;104413;-52
2022/06/15 01:27:31;;;;;;;4.07;3.00;;;;;;;23.52;37.66;95399.56;6161600;28;103312;-51
2022/06/15 01:30:46;;;;;;;3.53;3.23;;;;;;;23.56;37.10;95395.22;6162991;28;103236;-52
2022/06/15 01:34:01;;;;;;;2.90;2.70;;;;;;;23.52;37.27;95395.03;6151319;28;103173;-51
2022/06/15 01:37:12;;;;;;;3.23;3.03;;;;;;;23.49;36.74;95392.16;6162865;28;103313;-52
2022/06/15 01:40:21;;;;;;;3.63;2.70;;;;;;;23.46;36.97;95392.78;6161839;28;103240;-51
2022/06/15 01:43:29;;;;;;;2.80;2.60;;;;;;;23.44;37.38;95403.00;6162659;28;103295;-51
2022/06/15 01:46:33;;;;;;;2.70;2.23;;;;;;;23.46;36.67;95403.47;6151636;28;104348;-52
2022/06/15 01:49:40;;;;;;;3.13;2.83;;;;;;;23.44;36.46;95408.34;6162338;28;103680;-51
2022/06/15 01:52:47;;;;;;;2.20;2.10;;;;;;;23.43;36.29;95404.09;6161574;28;104105;-51
2022/06/15 01:55:54;;;;;;;5.10;2.40;;;;;;;23.40;36.70;95402.81;6151870;28;103202;-51
2022/06/15 01:59:03;;;;;;;2.77;2.53;;;;;;;23.44;36.15;95398.44;6161136;28;106234;-53
2022/06/15 02:02:15;;;;;;;2.70;2.43;;;;;;;23.43;36.93;95404.09;6160416;28;102981;-52
2022/06/15 02:05:26;;;;;;;3.20;2.33;;;;;;;23.44;36.85;95403.00;6161065;28;104061;-51
2022/06/15 02:08:37;;;;;;;2.70;2.30;;;;;;;23.39;36.89;95405.81;6150926;28;104379;-52
2022/06/15 02:11:43;;;;;;;2.37;2.17;;;;;;;23.42;36.35;95402.50;6162394;28;103030;-52
2022/06/15 02:14:52;;;;;;;2.23;2.13;;;;;;;23.39;36.59;95408.47;6162822;28;103092;-52
2022/06/15 02:18:00;;;;;;;2.80;2.23;;;;;;;23.35;36.31;95410.16;6155700;28;103065;-51
2022/06/15 02:21:09;;;;;;;3.20;2.00;;;;;;;23.37;36.63;95411.44;6155592;28;104048;-52
2022/06/15 02:24:15;;;;;;;3.60;2.60;;;;;;;23.35;36.38;95408.25;6162644;28;103891;-53
2022/06/15 02:27:20;;;;;;;2.30;2.10;;;;;;;23.40;36.20;95412.72;6158723;28;103906;-52
2022/06/15 02:30:26;;;;;;;2.83;2.50;;;;;;;23.38;36.84;95409.56;6135125;28;103429;-52
2022/06/15 02:33:32;;;;;;;3.43;2.77;;;;;;;23.36;36.68;95403.75;6161632;28;103200;-52
2022/06/15 02:36:35;;;;;;;2.33;2.13;;;;;;;23.39;36.58;95403.13;6160779;28;104271;-52
2022/06/15 02:39:38;;;;;;;3.00;2.30;;;;;;;23.37;36.43;95400.75;6161565;28;104084;-51
2022/06/15 02:42:42;;;;;;;2.17;2.00;;;;;;;23.39;36.69;95390.56;6150095;28;103324;-52
2022/06/15 02:45:47;;;;;;;2.20;2.00;;;;;;;23.40;36.21;95396.69;6161601;28;104148;-52
2022/06/15 02:48:52;;;;;;;2.83;2.30;;;;;;;23.38;36.46;95401.56;6158468;28;103117;-52
2022/06/15 02:52:00;;;;;;;2.33;2.17;;;;;;;23.37;36.30;95408.00;6155678;28;104225;-52
2022/06/15 02:55:05;;;;;;;2.97;2.67;;;;;;;23.38;35.96;95406.88;6155895;28;103007;-52
2022/06/15 02:58:10;;;;;;;2.33;2.10;;;;;;;23.41;36.09;95411.63;6158639;28;103822;-53
2022/06/15 03:01:14;;;;;;;2.53;2.30;;;;;;;23.38;36.10;95409.56;6159605;28;103394;-52
2022/06/15 03:04:18;;;;;;;2.47;2.27;;;;;;;23.36;35.97;95403.75;6149039;28;103052;-53
2022/06/15 03:07:22;;;;;;;2.90;2.57;;;;;;;23.34;35.79;95403.22;6160922;28;104423;-57
2022/06/15 03:10:25;;;;;;;2.57;2.37;;;;;;;23.39;36.24;95408.47;6156898;28;103180;-56
2022/06/15 03:13:29;;;;;;;3.13;2.50;;;;;;;23.44;36.58;95413.69;6136625;28;103234;-57
2022/06/15 03:16:32;;;;;;;2.80;2.50;;;;;;;23.46;36.15;95412.28;6149546;28;102939;-52
2022/06/15 03:19:37;;;;;;;2.87;2.63;;;;;;;23.45;36.57;95408.03;6158388;28;104040;-53
2022/06/15 03:22:42;;;;;;;3.20;2.30;;;;;;;23.41;36.53;95403.59;6158084;28;103124;-52
2022/06/15 03:25:45;;;;;;;5.70;2.60;;;;;;;23.41;36.35;95415.06;6155431;28;103079;-56
2022/06/15 03:28:48;;;;;;;3.30;2.20;;;;;;;23.43;36.24;95412.88;6151523;28;104091;-56
2022/06/15 03:31:51;;;;;;;4.27;2.30;;;;;;;23.42;36.34;95415.88;6159804;28;103717;-56
2022/06/15 03:34:56;;;;;;;3.10;2.80;;;;;;;23.40;36.29;95423.41;6159403;28;103373;-56
2022/06/15 03:37:59;;;;;;;3.50;2.30;;;;;;;23.43;36.21;95425.44;6149629;28;103531;-57
2022/06/15 03:41:02;;;;;;;3.50;2.20;;;;;;;23.46;36.59;95422.16;6160686;28;102938;-57
2022/06/15 03:44:06;;;;;;;3.10;2.83;;;;;;;23.47;37.61;95429.09;6159192;28;104800;-57
2022/06/15 03:47:10;;;;;;;5.00;2.80;;;;;;;23.45;37.77;95426.72;6159931;28;104134;-57
2022/06/15 03:50:18;;;;;;;3.70;3.00;;;;;;;23.44;38.39;95429.69;6147044;28;103164;-57
2022/06/15 03:53:21;;;;;;;7.27;3.20;;;;;;;23.43;38.59;95439.59;6159935;28;103083;-57
2022/06/15 03:56:24;;;;;;;3.70;3.37;;;;;;;23.41;39.13;95435.66;6154226;28;103738;-57
2022/06/15 03:59:28;;;;;;;6.23;3.50;;;;;;;23.47;39.96;95445.91;6146084;28;103160;-55
2022/06/15 04:02:31;;;;;;;8.30;4.03;;;;;;;23.55;40.04;95444.41;6139938;28;104554;-57
2022/06/15 04:05:38;;;;;;;5.43;4.63;;;;;;;23.65;40.04;95440.66;6155172;28;104324;-58
2022/06/15 04:08:42;;;;;;;10.33;5.13;;;;;;;23.65;40.05;95438.00;6157090;28;104038;-57
2022/06/15 04:12:01;;;;;;;7.03;4.30;;;;;;;23.62;40.15;95444.75;6145023;28;103529;-56
2022/06/15 04:15:05;;;;;;;7.00;4.60;;;;;;;23.65;40.04;95438.78;6139957;28;106542;-57
2022/06/15 04:18:08;;;;;;;7.60;4.03;;;;;;;23.62;40.40;95446.63;6148041;28;103453;-58
2022/06/15 04:21:13;;;;;;;6.10;3.73;;;;;;;23.54;40.65;95445.50;6159231;28;104259;-52
2022/06/15 04:24:17;;;;;;;4.97;3.27;;;;;;;23.46;40.41;95443.53;6149937;28;103104;-53
2022/06/15 04:27:20;;;;;;;4.27;3.80;;;;;;;23.40;40.67;95447.44;6160727;28;103153;-52
2022/06/15 04:30:24;;;;;;;6.87;3.90;;;;;;;23.36;40.57;95449.94;6158734;28;103340;-52
2022/06/15 04:33:28;;;;;;;3.70;3.10;;;;;;;23.30;40.80;95457.25;6158288;28;104214;-52
2022/06/15 04:36:34;;;;;;;5.80;3.40;;;;;;;23.28;40.71;95458.63;6147604;28;103122;-52
2022/06/15 04:39:37;;;;;;;4.10;3.47;;;;;;;23.29;40.69;95461.03;6158030;28;103480;-52
2022/06/15 04:42:40;;;;;;;6.63;3.87;;;;;;;23.25;40.92;95453.91;6157925;28;103260;-52
2022/06/15 04:45:43;;;;;;;5.07;4.10;;;;;;;23.25;40.90;95459.22;6152052;28;104226;-52
2022/06/15 04:48:46;;;;;;;5.50;3.47;;;;;;;23.19;41.40;95460.44;6158953;28;104136;-52
2022/06/15 04:51:51;;;;;;;3.60;3.30;;;;;;;23.20;41.55;95462.81;6159878;28;103191;-53
2022/06/15 04:54:54;;;;;;;5.03;3.93;;;;;;;23.24;41.60;95457.66;6160188;28;103066;-53
2022/06/15 04:57:59;;;;;;;9.90;9.00;;;;;;;23.21;41.89;95467.06;6148613;28;103280;-53
2022/06/15 05:01:02;;;;;;;11.43;10.43;;;;;;;23.21;42.09;95466.28;6159457;28;103022;-52
2022/06/15 05:04:05;;;;;;;7.13;6.53;;;;;;;23.21;41.54;95469.72;6160263;28;103219;-52
2022/06/15 05:07:10;;;;;;;5.80;5.30;;;;;;;23.23;41.17;95467.56;6159684;28;103036;-52
2022/06/15 05:10:19;;;;;;;7.37;5.43;;;;;;;23.23;41.63;95477.44;6149038;28;103154;-52
2022/06/15 05:13:22;;;;;;;5.80;5.30;;;;;;;23.21;41.37;95474.28;6160255;28;103294;-51
2022/06/15 05:16:26;;;;;;;5.17;4.67;;;;;;;23.18;41.75;95470.31;6160002;28;102814;-53
2022/06/15 05:19:30;;;;;;;5.13;4.07;;;;;;;23.20;40.97;95478.03;6155052;28;102999;-52
2022/06/15 05:22:34;;;;;;;5.67;4.20;;;;;;;23.21;40.94;95472.41;6153819;28;103276;-52
2022/06/15 05:25:38;;;;;;;4.27;3.87;;;;;;;23.21;40.85;95483.09;6159864;28;103153;-52
2022/06/15 05:28:44;;;;;;;4.13;3.80;;;;;;;23.23;40.87;95478.22;6159649;28;102866;-53
2022/06/15 05:31:47;;;;;;;6.70;4.20;;;;;;;23.24;40.74;95477.13;6148204;28;103061;-52
2022/06/15 05:34:50;;;;;;;4.60;3.80;;;;;;;23.28;40.85;95486.13;6159773;28;102996;-52
2022/06/15 05:37:55;;;;;;;4.37;3.97;;;;;;;23.35;40.32;95484.94;6161841;28;103719;-52
2022/06/15 05:40:58;;;;;;;3.97;3.67;;;;;;;23.42;40.43;95483.44;6163898;28;103074;-52
2022/06/15 05:44:01;;;;;;;4.93;4.30;;;;;;;23.51;40.31;95480.81;6152912;28;104237;-52
2022/06/15 05:47:06;;;;;;;4.80;3.77;;;;;;;23.58;40.58;95486.53;6163607;28;104236;-52
2022/06/15 05:50:13;;;;;;;3.73;3.40;;;;;;;23.67;40.69;95478.56;6163894;28;104088;-51
2022/06/15 05:53:18;;;;;;;3.73;3.53;;;;;;;23.75;40.58;95483.19;6157686;28;103301;-52
2022/06/15 05:56:22;;;;;;;3.70;3.40;;;;;;;23.83;40.07;95485.88;6133489;28;104051;-50
2022/06/15 05:59:25;;;;;;;3.97;3.60;;;;;;;23.88;39.96;95488.44;6138673;28;103253;-52
2022/06/15 06:02:29;;;;;;;3.60;3.40;;;;;;;23.96;40.19;95494.13;6139223;28;103222;-52
2022/06/15 06:05:32;;;;;;;3.60;3.30;;;;;;;23.99;39.71;95488.19;6128602;28;103798;-51
2022/06/15 06:08:36;;;;;;;4.40;4.00;;;;;;;24.03;40.07;95489.19;6138696;28;103495;-51
2022/06/15 06:11:40;;;;;;;4.90;3.43;;;;;;;24.06;40.02;95489.34;6138653;28;103473;-52
2022/06/15 06:14:43;;;;;;;3.83;3.07;;;;;;;24.11;39.84;95491.91;6138237;28;103074;-52
2022/06/15 06:17:46;;;;;;;3.27;2.93;;;;;;;24.15;40.06;95498.19;6127769;28;103341;-52
2022/06/15 06:20:50;;;;;;;3.50;3.20;;;;;;;24.18;39.61;95494.13;6138569;28;104323;-52
2022/06/15 06:23:54;;;;;;;4.00;3.60;;;;;;;24.22;39.78;95503.13;6137790;28;103023;-52
2022/06/15 06:26:59;;;;;;;3.53;3.27;;;;;;;24.26;39.30;95490.72;6138862;28;104105;-52
2022/06/15 06:30:02;;;;;;;2.93;2.70;;;;;;;24.30;39.31;95493.53;6127048;28;103138;-52
2022/06/15 06:33:05;;;;;;;2.83;2.63;;;;;;;24.32;39.23;95502.84;6138718;28;103334;-51
2022/06/15 06:36:14;;;;;;;4.20;3.03;;;;;;;24.35;39.10;95494.19;6138228;28;103271;-52
2022/06/15 06:39:21;;;;;;;3.30;3.10;;;;;;;24.36;38.87;95493.13;6129814;28;103033;-51
2022/06/15 06:42:24;;;;;;;3.00;2.80;;;;;;;24.40;38.68;95488.72;6145776;28;103300;-52
2022/06/15 06:45:27;;;;;;;3.13;2.70;;;;;;;24.43;38.80;95489.97;6160256;28;104766;-52
2022/06/15 06:48:30;;;;;;;3.33;2.80;;;;;;;24.46;38.43;95492.03;6158768;28;103173;-52
2022/06/15 06:51:35;;;;;;;2.70;2.60;;;;;;;24.48;38.07;95493.31;6149991;28;104205;-52
2022/06/15 06:54:39;;;;;;;2.93;2.33;;;;;;;24.53;37.87;95491.56;6148726;28;103160;-54
2022/06/15 06:57:42;;;;;;;3.30;2.97;;;;;;;24.56;38.17;95488.31;6136201;28;103087;-52
2022/06/15 07:00:46;;;;;;;2.80;2.60;;;;;;;24.58;38.04;95496.81;6136771;28;104014;-52
2022/06/15 07:03:49;;;;;;;3.53;2.30;;;;;;;24.61;38.28;95488.16;6126327;28;103183;-52
2022/06/15 07:06:57;;;;;;;3.60;2.70;;;;;;;24.63;37.94;95488.63;6137680;28;104103;-53
2022/06/15 07:10:01;;;;;;;3.40;3.10;;;;;;;24.65;37.89;95489.88;6138049;28;102992;-50
2022/06/15 07:13:04;;;;;;;3.07;2.77;;;;;;;24.65;37.71;95497.13;6131864;28;103224;-50
2022/06/15 07:16:09;;;;;;;2.70;2.50;;;;;;;24.67;37.58;95493.03;6134307;28;104640;-51
2022/06/15 07:19:12;;;;;;;4.13;2.50;;;;;;;24.69;37.38;95493.53;6137708;28;104060;-51
2022/06/15 07:22:16;;;;;;;2.83;2.40;;;;;;;24.64;37.59;95490.19;6137419;28;104172;-57
2022/06/15 07:25:20;;;;;;;3.47;2.80;;;;;;;24.56;36.77;95494.44;6125180;28;102726;-55
2022/06/15 07:28:23;;;;;;;2.67;2.33;;;;;;;24.55;36.34;95497.44;6137152;28;103513;-57
2022/06/15 07:31:29;;;;;;;3.20;2.70;;;;;;;24.56;36.41;95491.75;6136837;28;103817;-56
2022/06/15 07:34:32;;;;;;;2.67;2.47;;;;;;;24.52;36.42;95485.44;6136967;28;103242;-56
2022/06/15 07:37:35;;;;;;;2.83;2.60;;;;;;;24.47;36.21;95488.25;6125120;28;103159;-56
2022/06/15 07:41:01;;;;;;;2.50;2.30;;;;;;;24.48;35.69;95493.31;6137435;28;102743;-55
2022/06/15 07:44:05;;;;;;;3.17;2.80;;;;;;;24.46;36.20;95489.34;6136832;28;104160;-56
2022/06/15 07:50:31;;;;;;;4.03;2.70;;;;;;;24.54;35.88;95493.19;6136557;28;104226;-56
2022/06/15 07:53:36;;;;;;;3.50;2.43;;;;;;;24.58;35.84;95496.81;6139355;28;103079;-55
2022/06/15 07:56:42;;;;;;;2.97;2.77;;;;;;;24.59;35.89;95487.69;6159650;28;104048;-55
2022/06/15 07:59:45;;;;;;;2.60;2.40;;;;;;;24.62;35.69;95489.72;6150503;28;104038;-56
2022/06/15 08:02:49;;;;;;;2.77;2.53;;;;;;;24.62;35.85;95492.41;6160641;28;102887;-56
2022/06/15 08:05:52;;;;;;;3.07;2.87;;;;;;;24.61;35.54;95496.19;6160568;28;102799;-56
2022/06/15 08:08:55;;;;;;;5.57;2.67;;;;;;;24.66;35.67;95496.03;6161082;28;103278;-56
2022/06/15 08:12:12;;;;;;;5.00;2.70;;;;;;;24.69;35.86;95495.44;6150451;28;104715;-55
2022/06/15 08:15:17;;;;;;;3.70;3.40;;;;;;;24.67;35.73;95490.34;6160492;28;103124;-56
2022/06/15 08:18:24;;;;;;;3.70;3.30;;;;;;;24.69;35.60;95495.44;6160833;28;103246;-56
2022/06/15 08:21:32;;;;;;;4.80;3.13;;;;;;;24.70;35.72;95494.34;6150830;28;104183;-56
2022/06/15 08:24:36;;;;;;;3.50;2.90;;;;;;;24.74;35.92;95492.63;6160199;28;103073;-56
2022/06/15 08:27:40;;;;;;;3.27;2.97;;;;;;;24.75;35.56;95499.56;6159444;28;103063;-55
2022/06/15 08:30:44;;;;;;;3.23;2.93;;;;;;;24.75;35.75;95495.00;6160980;28;103232;-55
2022/06/15 08:33:47;;;;;;;3.23;2.83;;;;;;;24.72;35.57;95495.63;6148686;28;104139;-56
2022/06/15 08:36:54;;;;;;;3.20;3.00;;;;;;;24.71;35.82;95495.94;6160668;28;103217;-56
2022/06/15 08:39:57;;;;;;;2.90;2.70;;;;;;;24.70;35.82;95497.81;6160717;28;103028;-56
2022/06/15 08:43:10;;;;;;;2.80;2.20;;;;;;;24.73;35.56;95496.41;6160487;28;102663;-56
2022/06/15 08:46:23;;;;;;;3.07;2.80;;;;;;;24.71;35.46;95491.38;6149432;28;103246;-55
2022/06/15 08:49:38;;;;;;;5.70;3.00;;;;;;;24.46;35.23;95495.50;6160281;28;103291;-56
2022/06/15 08:52:44;;;;;;;3.87;2.87;;;;;;;24.39;35.33;95489.81;6161107;28;103052;-56
2022/06/15 08:55:54;;;;;;;4.10;3.03;;;;;;;24.33;34.93;95491.03;6129146;28;102966;-56
2022/06/15 08:59:07;;;;;;;2.83;2.40;;;;;;;24.28;35.40;95485.84;6135215;28;104312;-56
2022/06/15 09:02:19;;;;;;;5.90;2.83;;;;;;;24.25;35.08;95491.81;6136557;28;104366;-56
2022/06/15 09:05:35;;;;;;;4.60;3.00;;;;;;;24.24;35.20;95492.13;6135629;28;103025;-56
2022/06/15 09:08:55;;;;;;;4.37;2.90;;;;;;;24.20;35.64;95489.28;6125187;28;103884;-55
2022/06/15 09:15:43;;;;;;;3.43;2.87;;;;;;;24.43;35.02;95493.44;6140149;28;103550;-56
2022/06/15 09:18:50;;;;;;;7.03;3.30;;;;;;;24.57;34.97;95495.22;6128751;28;104080;-57
2022/06/15 09:22:00;;;;;;;5.70;3.33;;;;;;;24.61;34.93;95496.97;6140651;28;104088;-56
2022/06/15 09:25:10;;;;;;;3.03;2.73;;;;;;;24.62;35.14;95489.72;6140336;28;103469;-56
2022/06/15 09:28:23;;;;;;;5.73;2.90;;;;;;;24.64;35.38;95496.34;6139553;28;104112;-56
2022/06/15 09:31:36;;;;;;;4.30;2.70;;;;;;;24.66;35.26;95486.09;6128782;28;103037;-56
2022/06/15 09:34:43;;;;;;;3.13;2.83;;;;;;;24.69;35.50;95496.22;6139347;28;103109;-56
2022/06/15 09:37:53;;;;;;;4.00;3.60;;;;;;;24.72;35.65;95489.47;6139693;28;103119;-56
2022/06/15 09:41:02;;;;;;;4.03;3.67;;;;;;;24.72;35.67;95492.16;6129041;28;103239;-57
2022/06/15 09:44:14;;;;;;;3.57;3.03;;;;;;;24.74;35.93;95488.06;6139885;28;104074;-58
2022/06/15 09:47:46;;;;;;;3.57;3.10;;;;;;;24.73;35.86;95486.50;6139792;28;102817;-57
2022/06/15 09:50:57;;;;;;;5.07;3.47;;;;;;;24.62;36.26;95492.41;6140124;28;103347;-57
2022/06/15 09:54:11;;;;;;;4.77;3.10;;;;;;;24.46;36.08;95492.81;6134429;28;103200;-56
2022/06/15 09:57:14;;;;;;;2.87;2.67;;;;;;;24.55;35.49;95492.88;6162913;28;103593;-56
2022/06/15 10:00:18;;;;;;;3.83;3.10;;;;;;;24.63;35.71;95491.31;6163502;28;103171;-56
2022/06/15 10:03:26;;;;;;;3.10;2.90;;;;;;;24.67;35.73;95481.53;6156795;28;103298;-55
2022/06/15 10:06:32;;;;;;;4.17;3.33;;;;;;;24.67;36.15;95486.91;6162470;28;103365;-56
2022/06/15 10:09:40;;;;;;;3.20;2.73;;;;;;;24.61;36.47;95483.59;6150481;28;103069;-56
2022/06/15 10:12:59;;;;;;;3.30;3.00;;;;;;;24.64;36.02;95482.16;6139029;28;103930;-56
2022/06/15 10:16:05;;;;;;;4.10;3.80;;;;;;;24.68;36.50;95483.94;6128216;28;104076;-56
2022/06/15 10:19:09;;;;;;;4.00;3.70;;;;;;;24.70;36.59;95486.31;6138735;28;103195;-52
2022/06/15 10:22:23;;;;;;;4.20;3.83;;;;;;;24.69;36.89;95480.16;6139075;28;104242;-52
2022/06/15 10:25:31;;;;;;;4.57;4.17;;;;;;;24.71;36.99;95482.56;6138118;28;104569;-51
2022/06/15 10:28:37;;;;;;;4.83;4.30;;;;;;;24.72;36.93;95476.09;6132860;28;104205;-52
2022/06/15 10:31:40;;;;;;;4.50;4.10;;;;;;;24.71;37.00;95482.56;6139054;28;103112;-51
2022/06/15 10:35:15;;;;;;;7.10;4.33;;;;;;;24.70;37.06;95475.63;6137626;28;103383;-52
2022/06/15 10:38:19;;;;;;;3.67;3.40;;;;;;;24.71;37.19;95477.19;6128090;28;105473;-51
2022/06/15 10:41:48;;;;;;;4.40;4.00;;;;;;;24.69;36.84;95472.13;6137989;28;103172;-51
2022/06/15 10:44:54;;;;;;;4.30;4.00;;;;;;;24.69;37.28;95474.03;6138943;28;103159;-51
2022/06/15 10:48:00;;;;;;;5.73;4.50;;;;;;;24.69;37.33;95463.31;6138212;28;103311;-51
2022/06/15 10:51:07;;;;;;;4.00;3.70;;;;;;;24.69;37.11;95463.31;6128010;28;104049;-51
2022/06/15 10:54:21;;;;;;;4.47;4.07;;;;;;;24.66;37.33;95464.69;6145315;28;103189;-51
2022/06/15 11:04:20;;;;;;;4.43;4.03;;;;;;;24.65;37.52;95452.41;6132177;28;103531;-52
2022/06/15 11:07:35;;;;;;;4.03;3.73;;;;;;;24.66;37.66;95453.19;6161735;28;103102;-51
2022/06/15 11:10:40;;;;;;;4.63;4.33;;;;;;;24.66;37.72;95448.63;6161708;28;103028;-52
2022/06/15 11:13:52;;;;;;;5.63;4.17;;;;;;;24.66;38.03;95442.50;6150585;28;103264;-51
2022/06/15 11:20:44;;;;;;;6.70;3.97;;;;;;;24.64;38.29;95447.38;6162119;28;103218;-52
2022/06/15 11:23:55;;;;;;;4.77;4.40;;;;;;;24.63;38.58;95448.47;6151033;28;103508;-51
2022/06/15 11:27:05;;;;;;;4.90;4.50;;;;;;;24.62;38.33;95445.03;6161700;28;103017;-50
2022/06/15 11:30:20;;;;;;;4.67;4.20;;;;;;;24.62;38.04;95441.56;6161906;28;103111;-52
2022/06/15 11:33:29;;;;;;;4.30;4.00;;;;;;;24.61;38.21;95439.97;6162569;28;103992;-52
2022/06/15 11:36:37;;;;;;;4.57;4.20;;;;;;;24.59;38.36;95432.28;6152476;28;104013;-51
2022/06/15 11:39:47;;;;;;;4.63;4.00;;;;;;;24.59;38.29;95436.84;6160448;28;103085;-52
2022/06/15 11:42:51;;;;;;;4.63;4.23;;;;;;;24.57;38.28;95439.03;6161907;28;103073;-52
2022/06/15 11:46:15;;;;;;;4.23;3.83;;;;;;;24.56;38.45;95430.22;6151148;28;103117;-51
2022/06/15 11:49:31;;;;;;;3.87;3.53;;;;;;;24.56;38.46;95424.88;6162291;28;103874;-51
2022/06/15 11:52:56;;;;;;;4.20;3.90;;;;;;;24.54;38.68;95435.09;6162207;28;103243;-57
2022/06/15 11:56:08;;;;;;;3.90;3.60;;;;;;;24.54;38.58;95435.09;6160535;28;103427;-51
2022/06/15 11:59:24;;;;;;;4.67;4.27;;;;;;;24.55;38.63;95433.22;6150872;28;103345;-51
2022/06/15 12:02:49;;;;;;;3.63;3.33;;;;;;;24.53;38.61;95424.69;6161174;28;103174;-52
2022/06/15 12:05:57;;;;;;;4.40;4.10;;;;;;;24.53;38.78;95419.34;6161518;28;103047;-52
2022/06/15 12:09:06;;;;;;;4.67;3.90;;;;;;;24.53;38.21;95422.00;6150050;28;103356;-52
2022/06/15 12:15:44;;;;;;;3.63;3.33;;;;;;;24.51;38.74;95416.97;6161216;28;104132;-52
2022/06/15 12:18:58;;;;;;;4.07;3.70;;;;;;;24.49;38.40;95414.59;6161929;28;104541;-51
2022/06/15 12:22:06;;;;;;;4.13;3.83;;;;;;;24.48;38.65;95421.06;6152363;28;103097;-52
2022/06/15 12:25:19;;;;;;;4.20;3.90;;;;;;;24.49;38.55;95417.28;6162028;28;103244;-52
2022/06/15 12:28:32;;;;;;;3.90;3.60;;;;;;;24.48;38.99;95418.38;6161023;28;103285;-52
2022/06/15 12:31:52;;;;;;;3.57;3.27;;;;;;;24.48;38.71;95418.38;6149493;28;103003;-53
2022/06/15 12:35:03;;;;;;;4.17;3.87;;;;;;;24.48;38.57;95410.34;6161398;28;103065;-52
2022/06/15 12:38:16;;;;;;;5.13;3.80;;;;;;;24.48;38.85;95407.69;6125681;28;103683;-52
2022/06/15 12:44:54;;;;;;;4.10;3.80;;;;;;;24.47;39.38;95402.66;6152785;28;105397;-52
2022/06/15 12:48:01;;;;;;;3.90;3.60;;;;;;;24.46;38.93;95401.84;6168616;28;103955;-52
2022/06/15 12:51:11;;;;;;;4.30;4.00;;;;;;;24.46;39.01;95409.88;6168691;28;102956;-52
2022/06/15 12:54:21;;;;;;;3.57;3.37;;;;;;;24.46;39.16;95391.16;6149043;28;104642;-52
2022/06/15 12:57:32;;;;;;;4.00;3.80;;;;;;;24.47;39.10;95398.09;6144008;28;103696;-52
2022/06/15 13:00:43;;;;;;;4.03;3.73;;;;;;;24.46;39.02;95385.81;6143815;28;103245;-51
2022/06/15 13:04:04;;;;;;;3.70;3.50;;;;;;;24.46;39.39;95385.81;6143915;28;103138;-52
2022/06/15 13:07:26;;;;;;;3.60;3.40;;;;;;;24.45;39.21;95384.22;6133381;28;103029;-51
2022/06/15 13:10:29;;;;;;;4.00;3.70;;;;;;;24.46;39.17;95379.66;6144185;28;104278;-52
2022/06/15 13:13:36;;;;;;;3.83;3.53;;;;;;;24.46;39.02;95390.38;6144040;28;103786;-52
2022/06/15 13:16:43;;;;;;;3.70;3.40;;;;;;;24.45;39.42;95383.44;6132509;28;103495;-52
2022/06/15 13:19:50;;;;;;;3.60;3.30;;;;;;;24.44;39.41;95393.38;6143942;28;103088;-51
2022/06/15 13:22:53;;;;;;;3.97;3.67;;;;;;;24.45;39.32;95389.59;6143605;28;103510;-52
2022/06/15 13:25:59;;;;;;;3.40;3.20;;;;;;;24.45;39.40;95383.44;6143436;28;103351;-51
2022/06/15 13:29:26;;;;;;;3.80;3.50;;;;;;;24.46;39.49;95385.03;6132958;28;103934;-52
2022/06/15 13:32:57;;;;;;;3.50;3.30;;;;;;;24.46;39.80;95382.34;6143828;28;104191;-52
2022/06/15 13:36:19;;;;;;;4.10;3.67;;;;;;;24.46;39.76;95387.69;6143988;28;104185;-51
2022/06/15 13:39:47;;;;;;;3.83;3.50;;;;;;;24.47;39.68;95392.72;6133331;28;103506;-53
2022/06/15 13:43:01;;;;;;;3.43;3.23;;;;;;;24.48;39.58;95374.78;6143434;28;103194;-51
2022/06/15 13:46:21;;;;;;;3.10;2.90;;;;;;;24.46;39.52;95377.78;6143137;28;104292;-51
2022/06/15 13:49:37;;;;;;;3.70;3.37;;;;;;;24.48;39.48;95383.59;6143250;28;104136;-51
2022/06/15 13:52:42;;;;;;;3.20;3.00;;;;;;;24.47;39.86;95379.34;6131922;28;102978;-52
2022/06/15 13:56:00;;;;;;;3.50;3.30;;;;;;;24.47;39.64;95376.69;6163774;28;103224;-50
2022/06/15 13:59:15;;;;;;;3.40;3.10;;;;;;;24.47;39.67;95376.69;6162894;28;103541;-51
2022/06/15 14:02:54;;;;;;;3.70;3.40;;;;;;;24.48;39.65;95380.13;6153158;28;103422;-51
2022/06/15 14:06:21;;;;;;;4.00;3.70;;;;;;;24.47;39.83;95382.03;6161895;28;104167;-53
2022/06/15 14:09:38;;;;;;;3.77;3.47;;;;;;;24.48;39.99;95377.47;6154895;28;104016;-50
2022/06/15 14:13:06;;;;;;;5.50;3.90;;;;;;;24.48;39.86;95374.78;6158872;28;103256;-51
2022/06/15 14:16:30;;;;;;;4.80;3.90;;;;;;;24.49;39.69;95373.69;6158890;28;103977;-51
2022/06/15 14:19:38;;;;;;;3.50;3.30;;;;;;;24.48;39.85;95372.13;6163401;28;103183;-51
2022/06/15 14:22:49;;;;;;;3.87;3.67;;;;;;;24.48;39.76;95370.22;6161984;28;103097;-51
2022/06/15 14:26:14;;;;;;;3.97;3.77;;;;;;;24.49;40.00;95373.69;6152580;28;105377;-51
2022/06/15 14:29:18;;;;;;;4.10;3.80;;;;;;;24.50;39.98;95372.59;6162890;28;103357;-51
2022/06/15 14:32:26;;;;;;;4.80;4.43;;;;;;;24.49;39.74;95371.00;6162767;28;103297;-51
2022/06/15 14:35:30;;;;;;;3.80;3.60;;;;;;;24.49;39.75;95369.13;6158344;28;104293;-50
2022/06/15 14:38:35;;;;;;;4.17;3.83;;;;;;;24.51;39.96;95368.81;6156599;28;103142;-52
2022/06/15 14:41:39;;;;;;;4.20;3.90;;;;;;;24.52;39.88;95369.59;6162942;28;103639;-52
2022/06/15 14:44:42;;;;;;;4.30;4.00;;;;;;;24.51;39.98;95360.78;6162319;28;103364;-51
2022/06/15 14:47:51;;;;;;;4.03;3.73;;;;;;;24.52;39.90;95361.56;6152758;28;104347;-52
2022/06/15 14:51:07;;;;;;;4.53;4.10;;;;;;;24.51;40.27;95358.09;6162768;28;104292;-52
2022/06/15 14:54:14;;;;;;;3.90;3.70;;;;;;;24.51;40.39;95355.44;6161458;28;103121;-51
2022/06/15 14:57:21;;;;;;;4.43;4.03;;;;;;;24.51;40.30;95350.06;6161902;28;103057;-51
2022/06/15 15:00:27;;;;;;;5.30;4.10;;;;;;;24.51;40.32;95355.44;6150387;28;103183;-52